Time;durP1;ratioP1;P1;durP2;ratioP2;P2;SDS_P1;SDS_P2;PMS_P1;PMS_P2;Temp;Humidity;BMP_temperature;BMP_pressure;BME280_temperature;BME280_humidity;BME280_pressure;Samples;Min_cycle;Max_cycle;Signal;HPM_P1;HPM_P2
2023/10/25 00:01:30;;;;;;;;;;;;;;;;;;5023724;28;20011;-86
2023/10/25 00:03:59;;;;;;;;;;;;;;;;;;4998118;28;19926;-86
2023/10/25 00:06:28;;;;;;;;;;;;;;;;;;4996646;28;19972;-85
2023/10/25 00:08:54;;;;;;;;;;;;;;;;;;4975941;28;19928;-86
2023/10/25 00:11:20;;;;;;;;;;;;;;;;;;5017252;28;19983;-85
2023/10/25 00:13:49;;;;;;;;;;;;;;;;;;5026900;28;19929;-86
2023/10/25 00:16:15;;;;;;;;;;;;;;;;;;4983934;28;20490;-85
2023/10/25 00:18:41;;;;;;;;;;;;;;;;;;4994398;28;19964;-86
2023/10/25 00:21:07;;;;;;;;;;;;;;;;;;5001745;28;19936;-85
2023/10/25 00:23:33;;;;;;;;;;;;;;;;;;5016538;28;19933;-86
2023/10/25 00:25:59;;;;;;;;;;;;;;;;;;4996549;28;19932;-86
2023/10/25 00:28:25;;;;;;;;;;;;;;;;;;5024616;28;20664;-84
2023/10/25 00:30:51;;;;;;;;;;;;;;;;;;4985983;28;20394;-86
2023/10/25 00:33:17;;;;;;;;;;;;;;;;;;4981766;28;20064;-87
2023/10/25 00:35:43;;;;;;;;;;;;;;;;;;4991619;28;19935;-86
2023/10/25 00:38:15;;;;;;;;;;;;;;;;;;5004685;28;19937;-86
2023/10/25 00:40:41;;;;;;;;;;;;;;;;;;5017818;28;20408;-84
2023/10/25 00:43:07;;;;;;;;;;;;;;;;;;5025149;28;19937;-85
2023/10/25 00:45:33;;;;;;;;;;;;;;;;;;5000074;28;19929;-84
2023/10/25 00:47:59;;;;;;;;;;;;;;;;;;4982165;28;20009;-85
2023/10/25 00:50:25;;;;;;;;;;;;;;;;;;5000044;28;19951;-85
2023/10/25 00:52:51;;;;;;;;;;;;;;;;;;5022402;28;20053;-86
2023/10/25 00:55:16;;;;;;;;;;;;;;;;;;5022987;28;19971;-86
2023/10/25 00:57:42;;;;;;;;;;;;;;;;;;4998791;28;19929;-84
2023/10/25 01:00:08;;;;;;;;;;;;;;;;;;4975757;28;20407;-85
2023/10/25 01:02:34;;;;;;;;;;;;;;;;;;4987141;28;19932;-86
2023/10/25 01:05:00;;;;;;;;;;;;;;;;;;5001417;28;19925;-85
2023/10/25 01:07:26;;;;;;;;;;;;;;;;;;5001932;28;20353;-86
2023/10/25 01:09:52;;;;;;;;;;;;;;;;;;4991766;28;19972;-86
2023/10/25 01:12:18;;;;;;;;;;;;;;;;;;4999134;28;20371;-86
2023/10/25 01:14:44;;;;;;;;;;;;;;;;;;4988588;28;20754;-85
2023/10/25 01:17:10;;;;;;;;;;;;;;;;;;4988229;28;19955;-85
2023/10/25 01:19:36;;;;;;;;;;;;;;;;;;5004498;28;19933;-85
2023/10/25 01:22:05;;;;;;;;;;;;;;;;;;5000914;28;19933;-85
2023/10/25 01:24:30;;;;;;;;;;;;;;;;;;4998099;28;20389;-85
2023/10/25 01:26:56;;;;;;;;;;;;;;;;;;5001807;28;19929;-86
2023/10/25 01:29:22;;;;;;;;;;;;;;;;;;5011248;28;19925;-85
2023/10/25 01:31:48;;;;;;;;;;;;;;;;;;4985815;28;19933;-86
2023/10/25 01:34:18;;;;;;;;;;;;;;;;;;5023384;28;19936;-86
2023/10/25 01:36:44;;;;;;;;;;;;;;;;;;4987191;28;20284;-85
2023/10/25 01:39:10;;;;;;;;;;;;;;;;;;4995583;28;19935;-86
2023/10/25 01:41:36;;;;;;;;;;;;;;;;;;4995746;28;19933;-85
2023/10/25 01:44:02;;;;;;;;;;;;;;;;;;4997935;28;19976;-86
2023/10/25 01:46:31;;;;;;;;;;;;;;;;;;5002059;28;19929;-86
2023/10/25 01:48:59;;;;;;;;;;;;;;;;;;5005767;28;19940;-85
2023/10/25 01:51:25;;;;;;;;;;;;;;;;;;4983161;28;19936;-85
2023/10/25 01:53:51;;;;;;;;;;;;;;;;;;4991490;28;20316;-86
2023/10/25 01:56:17;;;;;;;;;;;;;;;;;;4980292;28;19930;-86
2023/10/25 01:58:43;;;;;;;;;;;;;;;;;;4970551;28;19980;-85
2023/10/25 02:01:09;;;;;;;;;;;;;;;;;;4995636;28;20384;-86
2023/10/25 02:03:35;;;;;;;;;;;;;;;;;;4982465;28;19929;-85
2023/10/25 02:06:01;;;;;;;;;;;;;;;;;;5004412;28;19988;-85
2023/10/25 02:08:26;;;;;;;;;;;;;;;;;;5004788;28;19933;-86
2023/10/25 02:10:52;;;;;;;;;;;;;;;;;;4986558;28;19936;-86
2023/10/25 02:13:18;;;;;;;;;;;;;;;;;;4978874;28;19929;-86
2023/10/25 02:15:44;;;;;;;;;;;;;;;;;;4992003;28;19929;-86
2023/10/25 02:18:10;;;;;;;;;;;;;;;;;;4969218;28;20011;-86
2023/10/25 02:20:36;;;;;;;;;;;;;;;;;;4985289;28;19933;-86
2023/10/25 02:23:02;;;;;;;;;;;;;;;;;;4990672;28;20032;-86
2023/10/25 02:25:28;;;;;;;;;;;;;;;;;;4958594;28;20668;-86
2023/10/25 02:27:54;;;;;;;;;;;;;;;;;;4984215;28;19929;-86
2023/10/25 02:30:20;;;;;;;;;;;;;;;;;;4994300;28;20021;-86
2023/10/25 02:32:46;;;;;;;;;;;;;;;;;;4975815;28;20407;-85
2023/10/25 02:35:12;;;;;;;;;;;;;;;;;;4996455;28;20432;-86
2023/10/25 02:37:37;;;;;;;;;;;;;;;;;;4979354;28;20012;-85
2023/10/25 02:40:06;;;;;;;;;;;;;;;;;;4977108;28;19925;-86
2023/10/25 02:42:33;;;;;;;;;;;;;;;;;;4953175;28;20182;-86
2023/10/25 02:44:59;;;;;;;;;;;;;;;;;;4980644;28;20411;-86
2023/10/25 02:47:28;;;;;;;;;;;;;;;;;;4979751;28;19930;-85
2023/10/25 02:49:54;;;;;;;;;;;;;;;;;;4969627;28;19953;-86
2023/10/25 02:52:20;;;;;;;;;;;;;;;;;;4984050;28;20384;-86
2023/10/25 02:54:46;;;;;;;;;;;;;;;;;;4968159;28;19930;-86
2023/10/25 02:57:12;;;;;;;;;;;;;;;;;;4980336;28;19929;-86
2023/10/25 02:59:37;;;;;;;;;;;;;;;;;;4974873;28;20420;-85
2023/10/25 03:02:09;;;;;;;;;;;;;;;;;;4970477;28;20327;-86
2023/10/25 03:04:35;;;;;;;;;;;;;;;;;;4953317;28;19930;-85
2023/10/25 03:07:01;;;;;;;;;;;;;;;;;;4966642;28;19928;-86
2023/10/25 03:09:27;;;;;;;;;;;;;;;;;;4967632;28;19953;-85
2023/10/25 03:11:53;;;;;;;;;;;;;;;;;;4965350;28;19937;-86
2023/10/25 03:14:19;;;;;;;;;;;;;;;;;;4973647;28;19983;-86
2023/10/25 03:16:46;;;;;;;;;;;;;;;;;;4974617;28;20005;-85
2023/10/25 03:19:12;;;;;;;;;;;;;;;;;;4988019;28;19941;-86
2023/10/25 03:21:38;;;;;;;;;;;;;;;;;;4968670;28;20327;-86
2023/10/25 03:24:07;;;;;;;;;;;;;;;;;;4959154;28;19937;-86
2023/10/25 03:26:33;;;;;;;;;;;;;;;;;;4982845;28;19930;-85
2023/10/25 03:28:59;;;;;;;;;;;;;;;;;;4961180;28;19936;-86
2023/10/25 03:31:25;;;;;;;;;;;;;;;;;;4972698;28;19937;-85
2023/10/25 03:33:51;;;;;;;;;;;;;;;;;;4993680;28;20410;-85
2023/10/25 03:36:17;;;;;;;;;;;;;;;;;;4969193;28;19937;-86
2023/10/25 03:38:42;;;;;;;;;;;;;;;;;;4966225;28;19969;-85
2023/10/25 03:41:08;;;;;;;;;;;;;;;;;;4992181;28;20016;-84
2023/10/25 03:43:34;;;;;;;;;;;;;;;;;;4985933;28;20013;-85
2023/10/25 03:46:00;;;;;;;;;;;;;;;;;;4997412;28;20016;-85
2023/10/25 03:48:26;;;;;;;;;;;;;;;;;;4969683;28;20539;-87
2023/10/25 03:50:52;;;;;;;;;;;;;;;;;;4994789;28;20013;-85
2023/10/25 03:53:18;;;;;;;;;;;;;;;;;;4980769;28;19926;-86
2023/10/25 03:55:44;;;;;;;;;;;;;;;;;;4976119;28;20543;-86
2023/10/25 03:58:10;;;;;;;;;;;;;;;;;;4966654;28;19956;-85
2023/10/25 04:00:36;;;;;;;;;;;;;;;;;;4964970;28;19983;-86
2023/10/25 04:03:02;;;;;;;;;;;;;;;;;;4969749;28;19926;-85
2023/10/25 04:05:28;;;;;;;;;;;;;;;;;;4966510;28;19936;-85
2023/10/25 04:07:53;;;;;;;;;;;;;;;;;;4966624;28;20451;-86
2023/10/25 04:10:19;;;;;;;;;;;;;;;;;;4981208;28;19979;-86
2023/10/25 04:12:45;;;;;;;;;;;;;;;;;;4977223;28;19934;-85
2023/10/25 04:15:11;;;;;;;;;;;;;;;;;;4971367;28;20308;-86
2023/10/25 04:17:37;;;;;;;;;;;;;;;;;;4972734;28;20010;-86
2023/10/25 04:20:03;;;;;;;;;;;;;;;;;;4965276;28;19948;-86
2023/10/25 04:22:29;;;;;;;;;;;;;;;;;;4974179;28;19987;-85
2023/10/25 04:24:56;;;;;;;;;;;;;;;;;;4968052;28;19929;-85
2023/10/25 04:27:22;;;;;;;;;;;;;;;;;;4967163;28;19926;-86
2023/10/25 04:29:48;;;;;;;;;;;;;;;;;;4969933;28;19949;-86
2023/10/25 04:32:14;;;;;;;;;;;;;;;;;;4970966;28;20154;-85
2023/10/25 04:34:40;;;;;;;;;;;;;;;;;;4980761;28;20033;-85
2023/10/25 04:37:06;;;;;;;;;;;;;;;;;;4963933;28;19933;-85
2023/10/25 04:39:32;;;;;;;;;;;;;;;;;;4963277;28;19929;-85
2023/10/25 04:41:58;;;;;;;;;;;;;;;;;;4973205;28;19930;-85
2023/10/25 04:44:24;;;;;;;;;;;;;;;;;;4973889;28;19922;-85
2023/10/25 04:46:50;;;;;;;;;;;;;;;;;;4967117;28;19930;-85
2023/10/25 04:49:16;;;;;;;;;;;;;;;;;;4967650;28;19925;-86
2023/10/25 04:51:42;;;;;;;;;;;;;;;;;;4964393;28;19957;-85
2023/10/25 04:54:07;;;;;;;;;;;;;;;;;;4964946;28;19933;-86
2023/10/25 04:56:33;;;;;;;;;;;;;;;;;;4983392;28;19930;-86
2023/10/25 04:58:59;;;;;;;;;;;;;;;;;;4979627;28;19969;-85
2023/10/25 05:01:25;;;;;;;;;;;;;;;;;;4959493;28;19930;-86
2023/10/25 05:03:51;;;;;;;;;;;;;;;;;;4964279;28;19930;-86
2023/10/25 05:06:17;;;;;;;;;;;;;;;;;;4973035;28;20020;-86
2023/10/25 05:08:43;;;;;;;;;;;;;;;;;;4996291;28;20369;-86
2023/10/25 05:11:09;;;;;;;;;;;;;;;;;;5000062;28;19929;-85
2023/10/25 05:13:35;;;;;;;;;;;;;;;;;;4964710;28;19929;-85
2023/10/25 05:16:01;;;;;;;;;;;;;;;;;;4991998;28;19957;-85
2023/10/25 05:18:27;;;;;;;;;;;;;;;;;;4989534;28;19937;-86
2023/10/25 05:20:52;;;;;;;;;;;;;;;;;;4999797;28;19976;-85
2023/10/25 05:23:18;;;;;;;;;;;;;;;;;;4983191;28;19925;-84
2023/10/25 05:25:44;;;;;;;;;;;;;;;;;;4977923;28;19933;-85
2023/10/25 05:28:10;;;;;;;;;;;;;;;;;;4978407;28;20419;-86
2023/10/25 05:30:45;;;;;;;;;;;;;;;;;;4998873;28;19973;-85
2023/10/25 05:33:11;;;;;;;;;;;;;;;;;;4963467;28;19930;-85
2023/10/25 05:35:37;;;;;;;;;;;;;;;;;;4970070;28;20637;-85
2023/10/25 05:38:05;;;;;;;;;;;;;;;;;;4965911;28;20052;-85
2023/10/25 05:40:31;;;;;;;;;;;;;;;;;;4986126;28;19934;-85
2023/10/25 05:42:57;;;;;;;;;;;;;;;;;;4981538;28;19929;-86
2023/10/25 05:45:23;;;;;;;;;;;;;;;;;;4970039;28;20420;-86
2023/10/25 05:47:49;;;;;;;;;;;;;;;;;;5000858;28;19969;-85
2023/10/25 05:50:21;;;;;;;;;;;;;;;;;;5004026;28;19929;-85
2023/10/25 05:52:47;;;;;;;;;;;;;;;;;;4984572;28;20033;-85
2023/10/25 05:55:13;;;;;;;;;;;;;;;;;;5012476;28;19979;-85
2023/10/25 05:57:39;;;;;;;;;;;;;;;;;;5002016;28;19926;-86
2023/10/25 06:00:06;;;;;;;;;;;;;;;;;;4993423;28;20386;-85
2023/10/25 06:02:32;;;;;;;;;;;;;;;;;;4996213;28;19939;-85
2023/10/25 06:04:59;;;;;;;;;;;;;;;;;;4993267;28;19926;-85
2023/10/25 06:07:25;;;;;;;;;;;;;;;;;;5004137;28;20523;-86
2023/10/25 06:09:51;;;;;;;;;;;;;;;;;;4976878;28;20027;-85
2023/10/25 06:12:17;;;;;;;;;;;;;;;;;;5003611;28;20023;-85
2023/10/25 06:14:43;;;;;;;;;;;;;;;;;;5002369;28;19952;-86
2023/10/25 06:17:09;;;;;;;;;;;;;;;;;;4985195;28;19926;-86
2023/10/25 06:19:35;;;;;;;;;;;;;;;;;;5018382;28;19929;-86
2023/10/25 06:22:01;;;;;;;;;;;;;;;;;;5005386;28;19936;-85
2023/10/25 06:24:27;;;;;;;;;;;;;;;;;;4998550;28;19929;-86
2023/10/25 06:26:52;;;;;;;;;;;;;;;;;;4998575;28;20463;-85
2023/10/25 06:29:18;;;;;;;;;;;;;;;;;;4990530;28;20027;-85
2023/10/25 06:31:49;;;;;;;;;;;;;;;;;;4997219;28;19964;-85
2023/10/25 06:34:15;;;;;;;;;;;;;;;;;;5024861;28;19991;-85
2023/10/25 06:36:41;;;;;;;;;;;;;;;;;;4998957;28;19965;-86
2023/10/25 06:39:07;;;;;;;;;;;;;;;;;;5018469;28;19995;-86
2023/10/25 06:41:33;;;;;;;;;;;;;;;;;;4997804;28;19929;-85
2023/10/25 06:43:59;;;;;;;;;;;;;;;;;;4986111;28;20236;-85
2023/10/25 06:46:25;;;;;;;;;;;;;;;;;;4985562;28;19975;-84
2023/10/25 06:48:52;;;;;;;;;;;;;;;;;;5000723;28;19936;-84
2023/10/25 06:51:20;;;;;;;;;;;;;;;;;;4980785;28;19929;-86
2023/10/25 06:53:46;;;;;;;;;;;;;;;;;;4998549;28;20459;-85
2023/10/25 06:56:12;;;;;;;;;;;;;;;;;;4999177;28;20329;-84
2023/10/25 06:58:38;;;;;;;;;;;;;;;;;;4981940;28;19976;-84
2023/10/25 07:01:07;;;;;;;;;;;;;;;;;;4997877;28;19929;-85
2023/10/25 07:03:37;;;;;;;;;;;;;;;;;;4982941;28;19933;-85
2023/10/25 07:06:03;;;;;;;;;;;;;;;;;;5003061;28;19925;-85
2023/10/25 07:08:29;;;;;;;;;;;;;;;;;;4997794;28;20610;-86
2023/10/25 07:10:55;;;;;;;;;;;;;;;;;;4983122;28;19925;-85
2023/10/25 07:13:22;;;;;;;;;;;;;;;;;;4983315;28;19929;-86
2023/10/25 07:15:57;;;;;;;;;;;;;;;;;;4980924;28;19979;-84
2023/10/25 07:18:27;;;;;;;;;;;;;;;;;;5020123;28;19929;-85
2023/10/25 07:20:53;;;;;;;;;;;;;;;;;;4986391;28;19929;-87
2023/10/25 07:23:19;;;;;;;;;;;;;;;;;;4995692;28;19971;-85
2023/10/25 07:25:45;;;;;;;;;;;;;;;;;;4993146;28;19933;-85
2023/10/25 07:28:11;;;;;;;;;;;;;;;;;;4994784;28;20403;-84
2023/10/25 07:30:37;;;;;;;;;;;;;;;;;;4976723;28;19932;-86
2023/10/25 07:33:03;;;;;;;;;;;;;;;;;;4977606;28;19929;-86
2023/10/25 07:35:29;;;;;;;;;;;;;;;;;;4975473;28;20291;-85
2023/10/25 07:37:55;;;;;;;;;;;;;;;;;;4994313;28;19929;-85
2023/10/25 07:40:24;;;;;;;;;;;;;;;;;;4978469;28;20059;-85
2023/10/25 07:42:53;;;;;;;;;;;;;;;;;;4974479;28;19929;-85
2023/10/25 07:45:19;;;;;;;;;;;;;;;;;;4978291;28;19929;-85
2023/10/25 07:47:45;;;;;;;;;;;;;;;;;;4996219;28;19936;-85
2023/10/25 07:50:13;;;;;;;;;;;;;;;;;;4994227;28;19937;-84
2023/10/25 07:52:39;;;;;;;;;;;;;;;;;;4994484;28;19996;-85
2023/10/25 07:55:11;;;;;;;;;;;;;;;;;;4993049;28;21210;-86
2023/10/25 07:57:38;;;;;;;;;;;;;;;;;;5002553;28;19925;-84
2023/10/25 08:00:21;;;;;;;;;;;;;;;;;;4993257;28;20426;-85
2023/10/25 08:11:59;;;;;;;;;;;;;;;;;;4937861;28;20017;-85
2023/10/25 08:14:28;;;;;;;;;;;;;;;;;;4920655;28;19985;-85
2023/10/25 08:16:59;;;;;;;;;;;;;;;;;;4982868;28;19932;-83
2023/10/25 08:19:31;;;;;;;;;;;;;;;;;;4996969;28;20012;-85
2023/10/25 08:22:00;;;;;;;;;;;;;;;;;;4987038;28;20012;-86
2023/10/25 08:24:33;;;;;;;;;;;;;;;;;;5000326;28;19932;-86
2023/10/25 08:27:08;;;;;;;;;;;;;;;;;;4984167;28;19928;-85
2023/10/25 08:29:42;;;;;;;;;;;;;;;;;;5017215;28;19937;-84
2023/10/25 08:32:08;;;;;;;;;;;;;;;;;;4996168;28;19929;-84
2023/10/25 08:34:50;;;;;;;;;;;;;;;;;;4994507;28;19937;-85
2023/10/25 08:37:16;;;;;;;;;;;;;;;;;;4978637;28;20019;-84
2023/10/25 08:39:42;;;;;;;;;;;;;;;;;;4977519;28;19935;-84
2023/10/25 08:42:07;;;;;;;;;;;;;;;;;;5009058;28;20487;-85
2023/10/25 08:44:38;;;;;;;;;;;;;;;;;;4980585;28;19941;-85
2023/10/25 08:47:04;;;;;;;;;;;;;;;;;;4994745;28;20028;-83
2023/10/25 08:49:30;;;;;;;;;;;;;;;;;;5017062;28;20519;-84
2023/10/25 08:51:56;;;;;;;;;;;;;;;;;;5011113;28;19945;-85
2023/10/25 08:54:24;;;;;;;;;;;;;;;;;;4998069;28;19930;-83
2023/10/25 08:56:50;;;;;;;;;;;;;;;;;;4994377;28;19933;-85
2023/10/25 08:59:16;;;;;;;;;;;;;;;;;;4995220;28;20432;-85
2023/10/25 09:01:42;;;;;;;;;;;;;;;;;;4997729;28;19964;-85
2023/10/25 09:04:11;;;;;;;;;;;;;;;;;;4975990;28;20740;-84
2023/10/25 09:06:43;;;;;;;;;;;;;;;;;;4998599;28;19935;-84
2023/10/25 09:09:09;;;;;;;;;;;;;;;;;;4979707;28;19929;-84
2023/10/25 09:11:35;;;;;;;;;;;;;;;;;;4998373;28;20296;-83
2023/10/25 09:14:01;;;;;;;;;;;;;;;;;;4992749;28;19933;-85
2023/10/25 09:16:27;;;;;;;;;;;;;;;;;;4979127;28;19929;-85
2023/10/25 09:18:53;;;;;;;;;;;;;;;;;;4978011;28;20336;-86
2023/10/25 09:21:19;;;;;;;;;;;;;;;;;;5007542;28;20036;-83
2023/10/25 09:23:45;;;;;;;;;;;;;;;;;;5015370;28;19929;-84
2023/10/25 09:26:11;;;;;;;;;;;;;;;;;;5020599;28;20304;-82
2023/10/25 09:28:37;;;;;;;;;;;;;;;;;;5010572;28;20385;-82
2023/10/25 09:31:03;;;;;;;;;;;;;;;;;;5015278;28;20230;-81
2023/10/25 09:33:29;;;;;;;;;;;;;;;;;;5019572;28;20273;-82
2023/10/25 09:41:39;;;;;;;;;;;;;;;;;;4995463;28;20343;-83
2023/10/25 09:44:05;;;;;;;;;;;;;;;;;;5017223;28;20184;-83
2023/10/25 09:46:31;;;;;;;;;;;;;;;;;;5016246;28;20440;-83
2023/10/25 09:48:57;;;;;;;;;;;;;;;;;;5018724;28;19929;-82
2023/10/25 09:51:23;;;;;;;;;;;;;;;;;;4979512;28;20296;-83
2023/10/25 09:54:01;;;;;;;;;;;;;;;;;;5021736;28;19929;-83
2023/10/25 09:56:27;;;;;;;;;;;;;;;;;;5003767;28;19968;-83
2023/10/25 09:58:53;;;;;;;;;;;;;;;;;;4982119;28;19937;-83
2023/10/25 10:01:19;;;;;;;;;;;;;;;;;;4980130;28;19936;-83
2023/10/25 10:03:45;;;;;;;;;;;;;;;;;;4994706;28;20370;-85
2023/10/25 10:06:11;;;;;;;;;;;;;;;;;;4996090;28;19929;-83
2023/10/25 10:08:37;;;;;;;;;;;;;;;;;;4980329;28;19929;-83
2023/10/25 10:11:14;;;;;;;;;;;;;;;;;;4979939;28;19936;-84
2023/10/25 10:13:40;;;;;;;;;;;;;;;;;;4979560;28;19933;-83
2023/10/25 10:16:11;;;;;;;;;;;;;;;;;;4992434;28;19929;-83
2023/10/25 10:18:37;;;;;;;;;;;;;;;;;;5014458;28;19952;-83
2023/10/25 10:21:02;;;;;;;;;;;;;;;;;;4993055;28;19930;-83
2023/10/25 10:23:28;;;;;;;;;;;;;;;;;;5015752;28;19929;-83
2023/10/25 10:25:56;;;;;;;;;;;;;;;;;;5000938;28;19952;-84
2023/10/25 10:28:22;;;;;;;;;;;;;;;;;;4997192;28;20043;-83
2023/10/25 10:30:48;;;;;;;;;;;;;;;;;;5017768;28;20299;-85
2023/10/25 10:33:14;;;;;;;;;;;;;;;;;;5023194;23;19933;-85
2023/10/25 10:35:42;;;;;;;;;;;;;;;;;;4987069;28;19928;-83
2023/10/25 10:38:09;;;;;;;;;;;;;;;;;;4992346;28;19936;-83
2023/10/25 10:40:34;;;;;;;;;;;;;;;;;;5030660;28;19929;-83
2023/10/25 10:43:00;;;;;;;;;;;;;;;;;;5003673;28;20269;-84
2023/10/25 10:45:26;;;;;;;;;;;;;;;;;;5031030;28;20467;-84
2023/10/25 10:48:02;;;;;;;;;;;;;;;;;;5008257;28;20442;-83
2023/10/25 10:50:27;;;;;;;;;;;;;;;;;;5023279;28;20285;-83
2023/10/25 10:52:53;;;;;;;;;;;;;;;;;;4985792;28;19951;-84
2023/10/25 10:55:19;;;;;;;;;;;;;;;;;;5028749;28;19928;-83
2023/10/25 10:57:45;;;;;;;;;;;;;;;;;;4987830;28;20550;-82
2023/10/25 11:00:11;;;;;;;;;;;;;;;;;;4996912;28;19929;-83
2023/10/25 11:02:37;;;;;;;;;;;;;;;;;;4989466;28;19924;-83
2023/10/25 11:05:03;;;;;;;;;;;;;;;;;;5030128;28;19933;-83
2023/10/25 11:07:29;;;;;;;;;;;;;;;;;;4999975;28;20390;-83
2023/10/25 11:10:07;;;;;;;;;;;;;;;;;;4985532;28;20406;-83
2023/10/25 11:12:33;;;;;;;;;;;;;;;;;;5009217;28;19929;-83
2023/10/25 11:14:59;;;;;;;;;;;;;;;;;;5019867;28;19929;-83
2023/10/25 11:17:28;;;;;;;;;;;;;;;;;;4987162;28;19929;-84
2023/10/25 11:19:54;;;;;;;;;;;;;;;;;;5006050;28;19933;-84
2023/10/25 11:22:20;;;;;;;;;;;;;;;;;;5000594;28;20361;-84
2023/10/25 11:24:46;;;;;;;;;;;;;;;;;;5001883;28;20381;-84
2023/10/25 11:27:12;;;;;;;;;;;;;;;;;;5003684;28;20003;-84
2023/10/25 11:29:38;;;;;;;;;;;;;;;;;;5023434;28;19975;-84
2023/10/25 11:32:06;;;;;;;;;;;;;;;;;;5019497;28;20463;-84
2023/10/25 11:34:38;;;;;;;;;;;;;;;;;;5005654;28;19929;-83
2023/10/25 11:37:04;;;;;;;;;;;;;;;;;;5005627;28;20296;-83
2023/10/25 11:39:32;;;;;;;;;;;;;;;;;;5002877;28;19933;-83
2023/10/25 11:41:58;;;;;;;;;;;;;;;;;;4996490;28;19935;-83
2023/10/25 11:44:24;;;;;;;;;;;;;;;;;;4990109;28;19930;-83
2023/10/25 11:46:55;;;;;;;;;;;;;;;;;;4991225;28;20130;-84
2023/10/25 11:49:24;;;;;;;;;;;;;;;;;;4992877;28;20340;-84
2023/10/25 11:51:49;;;;;;;;;;;;;;;;;;5002568;28;19932;-83
2023/10/25 11:54:15;;;;;;;;;;;;;;;;;;5032464;28;19988;-84
2023/10/25 11:56:41;;;;;;;;;;;;;;;;;;5003227;28;20337;-84
2023/10/25 11:59:07;;;;;;;;;;;;;;;;;;5011776;28;19929;-84
2023/10/25 12:01:33;;;;;;;;;;;;;;;;;;5007301;28;19929;-84
2023/10/25 12:03:59;;;;;;;;;;;;;;;;;;4997044;28;19978;-83
2023/10/25 12:06:25;;;;;;;;;;;;;;;;;;5018185;28;19952;-83
2023/10/25 12:08:51;;;;;;;;;;;;;;;;;;4989429;28;19991;-84
2023/10/25 12:11:17;;;;;;;;;;;;;;;;;;5003413;28;20257;-82
2023/10/25 12:13:43;;;;;;;;;;;;;;;;;;4996491;28;19936;-84
2023/10/25 12:16:09;;;;;;;;;;;;;;;;;;5008276;28;20369;-84
2023/10/25 12:18:50;;;;;;;;;;;;;;;;;;4990882;28;20098;-84
2023/10/25 12:21:16;;;;;;;;;;;;;;;;;;5016693;28;20008;-84
2023/10/25 12:23:42;;;;;;;;;;;;;;;;;;4991347;28;19974;-84
2023/10/25 12:26:09;;;;;;;;;;;;;;;;;;5011600;28;19933;-83
2023/10/25 12:28:38;;;;;;;;;;;;;;;;;;4990859;28;20457;-85
2023/10/25 12:31:04;;;;;;;;;;;;;;;;;;4989435;28;19968;-84
2023/10/25 12:33:30;;;;;;;;;;;;;;;;;;4994143;28;19925;-84
2023/10/25 12:35:56;;;;;;;;;;;;;;;;;;4987669;28;19929;-83
2023/10/25 12:38:22;;;;;;;;;;;;;;;;;;5014171;28;20025;-84
2023/10/25 12:40:51;;;;;;;;;;;;;;;;;;4987749;28;20385;-84
2023/10/25 12:43:17;;;;;;;;;;;;;;;;;;5009662;28;19929;-84
2023/10/25 12:45:43;;;;;;;;;;;;;;;;;;4988649;28;19932;-83
2023/10/25 12:48:09;;;;;;;;;;;;;;;;;;5021160;28;19940;-83
2023/10/25 12:50:35;;;;;;;;;;;;;;;;;;4986028;28;20384;-84
2023/10/25 12:53:01;;;;;;;;;;;;;;;;;;5006145;28;19979;-83
2023/10/25 12:55:27;;;;;;;;;;;;;;;;;;4992185;28;19929;-83
2023/10/25 12:57:53;;;;;;;;;;;;;;;;;;5023383;28;20485;-83
2023/10/25 13:00:19;;;;;;;;;;;;;;;;;;5019196;28;19933;-83
2023/10/25 13:02:44;;;;;;;;;;;;;;;;;;5021256;28;19929;-84
2023/10/25 13:05:10;;;;;;;;;;;;;;;;;;5030842;28;19929;-84
2023/10/25 13:07:36;;;;;;;;;;;;;;;;;;5004345;28;19929;-83
2023/10/25 13:10:02;;;;;;;;;;;;;;;;;;5003352;28;20011;-83
2023/10/25 13:12:28;;;;;;;;;;;;;;;;;;5004565;28;19936;-84
2023/10/25 13:14:54;;;;;;;;;;;;;;;;;;5022048;28;21050;-85
2023/10/25 13:17:20;;;;;;;;;;;;;;;;;;5011576;28;20303;-85
2023/10/25 13:19:46;;;;;;;;;;;;;;;;;;5003728;28;20273;-84
2023/10/25 13:22:13;;;;;;;;;;;;;;;;;;5001820;28;20008;-84
2023/10/25 13:24:39;;;;;;;;;;;;;;;;;;4999929;28;19924;-83
2023/10/25 13:27:05;;;;;;;;;;;;;;;;;;5027808;28;19928;-84
2023/10/25 13:29:31;;;;;;;;;;;;;;;;;;5009375;28;20332;-84
2023/10/25 13:31:57;;;;;;;;;;;;;;;;;;5019073;28;19929;-83
2023/10/25 13:34:23;;;;;;;;;;;;;;;;;;5033944;28;19929;-85
2023/10/25 13:36:50;;;;;;;;;;;;;;;;;;5021466;28;20283;-82
2023/10/25 13:39:16;;;;;;;;;;;;;;;;;;5020380;28;19983;-84
2023/10/25 13:41:42;;;;;;;;;;;;;;;;;;5020566;28;19925;-83
2023/10/25 13:44:08;;;;;;;;;;;;;;;;;;5024178;28;19925;-83
2023/10/25 13:46:34;;;;;;;;;;;;;;;;;;5012427;28;19929;-83
2023/10/25 13:49:00;;;;;;;;;;;;;;;;;;4985992;28;19929;-83
2023/10/25 13:51:26;;;;;;;;;;;;;;;;;;5019271;28;19936;-84
2023/10/25 13:53:52;;;;;;;;;;;;;;;;;;5016766;28;19925;-84
2023/10/25 13:56:19;;;;;;;;;;;;;;;;;;5032198;28;19968;-84
2023/10/25 13:58:44;;;;;;;;;;;;;;;;;;5007386;28;19952;-84
2023/10/25 14:01:10;;;;;;;;;;;;;;;;;;5007854;28;19929;-85
2023/10/25 14:03:36;;;;;;;;;;;;;;;;;;4984119;28;20515;-84
2023/10/25 14:06:05;;;;;;;;;;;;;;;;;;5017453;28;19961;-85
2023/10/25 14:08:31;;;;;;;;;;;;;;;;;;5002113;28;20437;-84
2023/10/25 14:10:57;;;;;;;;;;;;;;;;;;5005226;28;19925;-84
2023/10/25 14:13:23;;;;;;;;;;;;;;;;;;4990010;28;19955;-84
2023/10/25 14:15:49;;;;;;;;;;;;;;;;;;5003542;28;19978;-84
2023/10/25 14:18:15;;;;;;;;;;;;;;;;;;4990974;28;19933;-83
2023/10/25 14:20:42;;;;;;;;;;;;;;;;;;5004286;28;21521;-83
2023/10/25 14:23:08;;;;;;;;;;;;;;;;;;5001051;28;19940;-83
2023/10/25 14:25:34;;;;;;;;;;;;;;;;;;5020873;28;19929;-84
2023/10/25 14:28:00;;;;;;;;;;;;;;;;;;5006270;28;19928;-84
2023/10/25 14:30:26;;;;;;;;;;;;;;;;;;4993051;28;19991;-83
2023/10/25 14:32:52;;;;;;;;;;;;;;;;;;5001961;28;20360;-84
2023/10/25 14:35:18;;;;;;;;;;;;;;;;;;5007982;28;19929;-84
2023/10/25 14:37:44;;;;;;;;;;;;;;;;;;5004811;28;19936;-84
2023/10/25 14:40:10;;;;;;;;;;;;;;;;;;4996516;28;19929;-84
2023/10/25 14:42:36;;;;;;;;;;;;;;;;;;5013680;28;19967;-84
2023/10/25 14:45:02;;;;;;;;;;;;;;;;;;4997983;28;19929;-83
2023/10/25 14:47:28;;;;;;;;;;;;;;;;;;5013129;28;19933;-84
2023/10/25 14:49:54;;;;;;;;;;;;;;;;;;5007325;28;19933;-83
2023/10/25 14:52:20;;;;;;;;;;;;;;;;;;5009476;28;19956;-84
2023/10/25 14:54:52;;;;;;;;;;;;;;;;;;5009120;28;19971;-84
2023/10/25 14:57:21;;;;;;;;;;;;;;;;;;5016976;28;19928;-83
2023/10/25 14:59:47;;;;;;;;;;;;;;;;;;5028831;28;19983;-84
2023/10/25 15:02:24;;;;;;;;;;;;;;;;;;5030072;28;20051;-83
2023/10/25 15:04:59;;;;;;;;;;;;;;;;;;5018255;28;19925;-83
2023/10/25 15:07:24;;;;;;;;;;;;;;;;;;5020923;28;19935;-84
2023/10/25 15:09:50;;;;;;;;;;;;;;;;;;4996100;28;19929;-84
2023/10/25 15:12:17;;;;;;;;;;;;;;;;;;5034946;28;20802;-83
2023/10/25 15:14:43;;;;;;;;;;;;;;;;;;5013173;28;20343;-83
2023/10/25 15:17:09;;;;;;;;;;;;;;;;;;5012719;28;20420;-84
2023/10/25 15:19:35;;;;;;;;;;;;;;;;;;5010928;28;19940;-84
2023/10/25 15:22:02;;;;;;;;;;;;;;;;;;4993260;28;20019;-84
2023/10/25 15:24:28;;;;;;;;;;;;;;;;;;5017862;28;19929;-83
2023/10/25 15:26:53;;;;;;;;;;;;;;;;;;5034034;28;19967;-84
2023/10/25 15:29:19;;;;;;;;;;;;;;;;;;5017321;28;19933;-85
2023/10/25 15:31:45;;;;;;;;;;;;;;;;;;5021058;28;20421;-84
2023/10/25 15:34:11;;;;;;;;;;;;;;;;;;5013784;28;19929;-83
2023/10/25 15:36:45;;;;;;;;;;;;;;;;;;5018740;28;19979;-84
2023/10/25 15:39:14;;;;;;;;;;;;;;;;;;5000358;28;20275;-84
2023/10/25 15:41:43;;;;;;;;;;;;;;;;;;5019757;28;19929;-84
2023/10/25 15:44:09;;;;;;;;;;;;;;;;;;5037291;28;19979;-84
2023/10/25 15:46:35;;;;;;;;;;;;;;;;;;5033520;28;19929;-83
2023/10/25 15:49:03;;;;;;;;;;;;;;;;;;5025295;28;20044;-83
2023/10/25 15:51:31;;;;;;;;;;;;;;;;;;5029630;28;19929;-84
2023/10/25 15:53:57;;;;;;;;;;;;;;;;;;5028912;28;19929;-84
2023/10/25 15:56:23;;;;;;;;;;;;;;;;;;5018119;28;19929;-84
2023/10/25 15:58:49;;;;;;;;;;;;;;;;;;5030686;28;20188;-84
2023/10/25 16:01:15;;;;;;;;;;;;;;;;;;5033108;28;20011;-84
2023/10/25 16:03:42;;;;;;;;;;;;;;;;;;5010307;28;19933;-82
2023/10/25 16:06:08;;;;;;;;;;;;;;;;;;4994377;28;19932;-82
2023/10/25 16:08:38;;;;;;;;;;;;;;;;;;5002349;28;20367;-83
2023/10/25 16:11:04;;;;;;;;;;;;;;;;;;5010475;28;20375;-83
2023/10/25 16:13:30;;;;;;;;;;;;;;;;;;5034468;28;19929;-83
2023/10/25 16:15:59;;;;;;;;;;;;;;;;;;5032978;28;19972;-82
2023/10/25 16:18:25;;;;;;;;;;;;;;;;;;5010081;28;19937;-82
2023/10/25 16:20:51;;;;;;;;;;;;;;;;;;5020374;28;19997;-83
2023/10/25 16:23:17;;;;;;;;;;;;;;;;;;5028534;28;19937;-82
2023/10/25 16:25:43;;;;;;;;;;;;;;;;;;5027770;28;19936;-82
2023/10/25 16:28:09;;;;;;;;;;;;;;;;;;5040781;28;20301;-82
2023/10/25 16:30:37;;;;;;;;;;;;;;;;;;5032072;28;19948;-82
2023/10/25 16:33:03;;;;;;;;;;;;;;;;;;5017448;28;19929;-83
2023/10/25 16:35:29;;;;;;;;;;;;;;;;;;5034979;28;20371;-82
2023/10/25 16:37:55;;;;;;;;;;;;;;;;;;5038961;28;20015;-83
2023/10/25 16:40:21;;;;;;;;;;;;;;;;;;5036815;28;19956;-82
2023/10/25 16:42:47;;;;;;;;;;;;;;;;;;5031028;28;19936;-82
2023/10/25 16:45:13;;;;;;;;;;;;;;;;;;5033387;28;19928;-83
2023/10/25 16:47:39;;;;;;;;;;;;;;;;;;5038519;28;19929;-83
2023/10/25 16:50:05;;;;;;;;;;;;;;;;;;5010651;28;20324;-82
2023/10/25 16:52:31;;;;;;;;;;;;;;;;;;5017681;28;19932;-82
2023/10/25 16:54:57;;;;;;;;;;;;;;;;;;5039706;28;19929;-82
2023/10/25 16:57:23;;;;;;;;;;;;;;;;;;5040063;28;19932;-82